sensor_id;sensor_type;location;lat;lon;timestamp;P1;durP1;ratioP1;P2;durP2;ratioP2
33987;SDS011;37428;53.580;-1.666;2023-03-18T00:02:37;18.05;;;3.92;;
33987;SDS011;37428;53.580;-1.666;2023-03-18T00:05:39;16.67;;;4.28;;
33987;SDS011;37428;53.580;-1.666;2023-03-18T00:08:42;18.52;;;5.45;;
33987;SDS011;37428;53.580;-1.666;2023-03-18T00:11:47;13.32;;;4.72;;
33987;SDS011;37428;53.580;-1.666;2023-03-18T00:14:50;12.95;;;4.63;;
33987;SDS011;37428;53.580;-1.666;2023-03-18T00:17:52;17.88;;;4.85;;
33987;SDS011;37428;53.580;-1.666;2023-03-18T00:20:54;13.40;;;3.58;;
33987;SDS011;37428;53.580;-1.666;2023-03-18T00:23:57;15.23;;;4.28;;
33987;SDS011;37428;53.580;-1.666;2023-03-18T00:27:01;12.38;;;5.78;;
33987;SDS011;37428;53.580;-1.666;2023-03-18T00:30:04;17.02;;;6.75;;
33987;SDS011;37428;53.580;-1.666;2023-03-18T00:33:07;15.90;;;8.45;;
33987;SDS011;37428;53.580;-1.666;2023-03-18T00:36:09;20.10;;;12.30;;
33987;SDS011;37428;53.580;-1.666;2023-03-18T00:39:13;25.75;;;14.82;;
33987;SDS011;37428;53.580;-1.666;2023-03-18T00:42:19;21.00;;;14.80;;
33987;SDS011;37428;53.580;-1.666;2023-03-18T00:45:21;26.85;;;14.38;;
33987;SDS011;37428;53.580;-1.666;2023-03-18T00:48:24;26.60;;;13.20;;
33987;SDS011;37428;53.580;-1.666;2023-03-18T00:51:27;28.88;;;12.32;;
33987;SDS011;37428;53.580;-1.666;2023-03-18T00:54:31;19.02;;;12.52;;
33987;SDS011;37428;53.580;-1.666;2023-03-18T00:57:36;24.40;;;13.70;;
33987;SDS011;37428;53.580;-1.666;2023-03-18T01:00:38;25.70;;;15.00;;
33987;SDS011;37428;53.580;-1.666;2023-03-18T01:03:41;31.05;;;16.65;;
33987;SDS011;37428;53.580;-1.666;2023-03-18T01:06:44;30.88;;;14.93;;
33987;SDS011;37428;53.580;-1.666;2023-03-18T01:09:46;29.95;;;15.63;;
33987;SDS011;37428;53.580;-1.666;2023-03-18T01:12:49;30.40;;;15.80;;
33987;SDS011;37428;53.580;-1.666;2023-03-18T01:15:52;28.98;;;15.30;;
33987;SDS011;37428;53.580;-1.666;2023-03-18T01:21:57;25.77;;;13.53;;
33987;SDS011;37428;53.580;-1.666;2023-03-18T01:24:59;26.38;;;13.07;;
33987;SDS011;37428;53.580;-1.666;2023-03-18T01:28:03;24.85;;;11.65;;
33987;SDS011;37428;53.580;-1.666;2023-03-18T01:31:05;21.77;;;12.02;;
33987;SDS011;37428;53.580;-1.666;2023-03-18T01:34:08;25.20;;;13.50;;
33987;SDS011;37428;53.580;-1.666;2023-03-18T01:37:10;29.23;;;16.40;;
33987;SDS011;37428;53.580;-1.666;2023-03-18T01:40:13;33.28;;;19.73;;
33987;SDS011;37428;53.580;-1.666;2023-03-18T01:43:18;35.33;;;19.38;;
33987;SDS011;37428;53.580;-1.666;2023-03-18T01:46:29;30.92;;;18.00;;
33987;SDS011;37428;53.580;-1.666;2023-03-18T01:49:37;34.72;;;19.60;;
33987;SDS011;37428;53.580;-1.666;2023-03-18T01:52:42;32.72;;;19.05;;
33987;SDS011;37428;53.580;-1.666;2023-03-18T01:55:46;35.78;;;19.52;;
33987;SDS011;37428;53.580;-1.666;2023-03-18T01:58:53;32.97;;;19.80;;
33987;SDS011;37428;53.580;-1.666;2023-03-18T02:01:57;33.80;;;18.58;;
33987;SDS011;37428;53.580;-1.666;2023-03-18T02:05:03;29.98;;;17.92;;
33987;SDS011;37428;53.580;-1.666;2023-03-18T02:08:09;24.77;;;17.38;;
33987;SDS011;37428;53.580;-1.666;2023-03-18T02:11:11;30.20;;;18.08;;
33987;SDS011;37428;53.580;-1.666;2023-03-18T02:14:15;26.30;;;16.20;;
33987;SDS011;37428;53.580;-1.666;2023-03-18T02:17:20;30.10;;;17.63;;
33987;SDS011;37428;53.580;-1.666;2023-03-18T02:20:29;27.27;;;18.70;;
33987;SDS011;37428;53.580;-1.666;2023-03-18T02:26:46;30.52;;;16.58;;
33987;SDS011;37428;53.580;-1.666;2023-03-18T02:29:56;21.10;;;15.07;;
33987;SDS011;37428;53.580;-1.666;2023-03-18T02:33:01;23.15;;;15.07;;
33987;SDS011;37428;53.580;-1.666;2023-03-18T02:39:11;18.50;;;13.60;;
33987;SDS011;37428;53.580;-1.666;2023-03-18T02:42:25;22.10;;;13.98;;
33987;SDS011;37428;53.580;-1.666;2023-03-18T02:45:32;21.65;;;12.82;;
33987;SDS011;37428;53.580;-1.666;2023-03-18T02:48:41;20.08;;;12.43;;
33987;SDS011;37428;53.580;-1.666;2023-03-18T02:51:45;23.67;;;13.40;;
33987;SDS011;37428;53.580;-1.666;2023-03-18T02:54:48;23.20;;;12.68;;
33987;SDS011;37428;53.580;-1.666;2023-03-18T02:57:50;28.80;;;15.15;;
33987;SDS011;37428;53.580;-1.666;2023-03-18T03:00:54;21.05;;;13.13;;
33987;SDS011;37428;53.580;-1.666;2023-03-18T03:03:57;21.02;;;14.02;;
33987;SDS011;37428;53.580;-1.666;2023-03-18T03:07:00;21.92;;;14.68;;
33987;SDS011;37428;53.580;-1.666;2023-03-18T03:10:03;19.02;;;13.77;;
33987;SDS011;37428;53.580;-1.666;2023-03-18T03:13:07;23.48;;;15.48;;
33987;SDS011;37428;53.580;-1.666;2023-03-18T03:16:12;22.77;;;17.63;;
33987;SDS011;37428;53.580;-1.666;2023-03-18T03:19:15;25.15;;;17.83;;
33987;SDS011;37428;53.580;-1.666;2023-03-18T03:22:17;35.20;;;23.50;;
33987;SDS011;37428;53.580;-1.666;2023-03-18T03:25:19;33.63;;;23.40;;
33987;SDS011;37428;53.580;-1.666;2023-03-18T03:28:21;37.05;;;25.67;;
33987;SDS011;37428;53.580;-1.666;2023-03-18T03:31:25;40.17;;;26.10;;
33987;SDS011;37428;53.580;-1.666;2023-03-18T03:34:27;35.25;;;23.13;;
33987;SDS011;37428;53.580;-1.666;2023-03-18T03:37:29;35.47;;;23.38;;
33987;SDS011;37428;53.580;-1.666;2023-03-18T03:40:31;38.65;;;25.48;;
33987;SDS011;37428;53.580;-1.666;2023-03-18T03:43:33;33.17;;;22.35;;
33987;SDS011;37428;53.580;-1.666;2023-03-18T03:46:37;34.05;;;22.38;;
33987;SDS011;37428;53.580;-1.666;2023-03-18T03:49:39;31.15;;;20.05;;
33987;SDS011;37428;53.580;-1.666;2023-03-18T03:52:41;28.60;;;19.92;;
33987;SDS011;37428;53.580;-1.666;2023-03-18T03:55:44;27.15;;;16.10;;
33987;SDS011;37428;53.580;-1.666;2023-03-18T03:58:46;23.45;;;16.50;;
33987;SDS011;37428;53.580;-1.666;2023-03-18T04:01:50;27.10;;;15.85;;
33987;SDS011;37428;53.580;-1.666;2023-03-18T04:04:52;22.45;;;15.43;;
33987;SDS011;37428;53.580;-1.666;2023-03-18T04:07:55;25.30;;;15.60;;
33987;SDS011;37428;53.580;-1.666;2023-03-18T04:10:59;28.00;;;15.05;;
33987;SDS011;37428;53.580;-1.666;2023-03-18T04:14:03;21.02;;;14.30;;
33987;SDS011;37428;53.580;-1.666;2023-03-18T04:17:07;17.77;;;12.27;;
33987;SDS011;37428;53.580;-1.666;2023-03-18T04:20:11;20.92;;;12.55;;
33987;SDS011;37428;53.580;-1.666;2023-03-18T04:23:13;23.83;;;14.23;;
33987;SDS011;37428;53.580;-1.666;2023-03-18T04:26:15;21.08;;;15.85;;
33987;SDS011;37428;53.580;-1.666;2023-03-18T04:29:17;20.65;;;15.20;;
33987;SDS011;37428;53.580;-1.666;2023-03-18T04:32:21;25.67;;;15.43;;
33987;SDS011;37428;53.580;-1.666;2023-03-18T04:35:23;17.60;;;15.45;;
33987;SDS011;37428;53.580;-1.666;2023-03-18T04:38:25;27.70;;;14.75;;
33987;SDS011;37428;53.580;-1.666;2023-03-18T04:41:27;27.48;;;15.90;;
33987;SDS011;37428;53.580;-1.666;2023-03-18T04:44:30;18.70;;;14.45;;
33987;SDS011;37428;53.580;-1.666;2023-03-18T04:47:33;20.58;;;13.85;;
33987;SDS011;37428;53.580;-1.666;2023-03-18T04:50:37;20.80;;;14.23;;
33987;SDS011;37428;53.580;-1.666;2023-03-18T04:53:39;22.70;;;15.43;;
33987;SDS011;37428;53.580;-1.666;2023-03-18T04:56:42;14.43;;;11.50;;
33987;SDS011;37428;53.580;-1.666;2023-03-18T04:59:44;21.77;;;9.82;;
33987;SDS011;37428;53.580;-1.666;2023-03-18T05:02:47;12.20;;;9.63;;
33987;SDS011;37428;53.580;-1.666;2023-03-18T05:05:50;12.88;;;8.88;;
33987;SDS011;37428;53.580;-1.666;2023-03-18T05:08:52;17.90;;;9.20;;
33987;SDS011;37428;53.580;-1.666;2023-03-18T05:11:56;16.88;;;10.45;;
33987;SDS011;37428;53.580;-1.666;2023-03-18T05:14:58;18.42;;;10.20;;
33987;SDS011;37428;53.580;-1.666;2023-03-18T05:18:01;17.10;;;11.40;;
33987;SDS011;37428;53.580;-1.666;2023-03-18T05:21:04;13.68;;;11.23;;
33987;SDS011;37428;53.580;-1.666;2023-03-18T05:24:07;18.58;;;12.15;;
33987;SDS011;37428;53.580;-1.666;2023-03-18T05:27:09;19.85;;;10.93;;
33987;SDS011;37428;53.580;-1.666;2023-03-18T05:30:12;17.83;;;10.32;;
33987;SDS011;37428;53.580;-1.666;2023-03-18T05:33:16;16.05;;;8.80;;
33987;SDS011;37428;53.580;-1.666;2023-03-18T05:36:19;15.15;;;8.07;;
33987;SDS011;37428;53.580;-1.666;2023-03-18T05:39:21;14.70;;;8.70;;
33987;SDS011;37428;53.580;-1.666;2023-03-18T05:42:23;15.63;;;7.00;;
33987;SDS011;37428;53.580;-1.666;2023-03-18T05:45:26;13.85;;;8.02;;
33987;SDS011;37428;53.580;-1.666;2023-03-18T05:48:29;10.85;;;7.82;;
33987;SDS011;37428;53.580;-1.666;2023-03-18T05:51:32;13.52;;;7.80;;
33987;SDS011;37428;53.580;-1.666;2023-03-18T05:54:34;14.93;;;8.23;;
33987;SDS011;37428;53.580;-1.666;2023-03-18T05:57:36;10.77;;;7.03;;
33987;SDS011;37428;53.580;-1.666;2023-03-18T06:00:39;13.13;;;6.28;;
33987;SDS011;37428;53.580;-1.666;2023-03-18T06:03:44;13.52;;;6.90;;
33987;SDS011;37428;53.580;-1.666;2023-03-18T06:06:46;16.48;;;7.13;;
33987;SDS011;37428;53.580;-1.666;2023-03-18T06:12:51;11.88;;;7.88;;
33987;SDS011;37428;53.580;-1.666;2023-03-18T06:15:57;8.95;;;6.40;;
33987;SDS011;37428;53.580;-1.666;2023-03-18T06:19:02;15.90;;;7.43;;
33987;SDS011;37428;53.580;-1.666;2023-03-18T06:22:04;18.75;;;10.20;;
33987;SDS011;37428;53.580;-1.666;2023-03-18T06:25:07;13.88;;;10.52;;
33987;SDS011;37428;53.580;-1.666;2023-03-18T06:28:10;15.43;;;11.02;;
33987;SDS011;37428;53.580;-1.666;2023-03-18T06:31:12;16.45;;;12.23;;
33987;SDS011;37428;53.580;-1.666;2023-03-18T06:34:16;17.27;;;12.35;;
33987;SDS011;37428;53.580;-1.666;2023-03-18T06:37:18;22.30;;;14.20;;
33987;SDS011;37428;53.580;-1.666;2023-03-18T06:43:23;13.87;;;10.67;;
33987;SDS011;37428;53.580;-1.666;2023-03-18T06:46:26;15.45;;;8.82;;
33987;SDS011;37428;53.580;-1.666;2023-03-18T06:49:29;18.02;;;8.40;;
33987;SDS011;37428;53.580;-1.666;2023-03-18T06:52:31;16.63;;;8.30;;
33987;SDS011;37428;53.580;-1.666;2023-03-18T06:55:34;18.15;;;7.38;;
33987;SDS011;37428;53.580;-1.666;2023-03-18T06:58:37;13.80;;;7.70;;
33987;SDS011;37428;53.580;-1.666;2023-03-18T07:01:39;10.98;;;5.93;;
33987;SDS011;37428;53.580;-1.666;2023-03-18T07:04:44;11.30;;;6.10;;
33987;SDS011;37428;53.580;-1.666;2023-03-18T07:07:46;8.43;;;4.80;;
33987;SDS011;37428;53.580;-1.666;2023-03-18T07:10:50;12.60;;;6.43;;
33987;SDS011;37428;53.580;-1.666;2023-03-18T07:13:53;18.73;;;6.68;;
33987;SDS011;37428;53.580;-1.666;2023-03-18T07:16:55;13.52;;;5.70;;
33987;SDS011;37428;53.580;-1.666;2023-03-18T07:19:59;9.55;;;5.57;;
33987;SDS011;37428;53.580;-1.666;2023-03-18T07:23:04;11.77;;;5.55;;
33987;SDS011;37428;53.580;-1.666;2023-03-18T07:26:06;13.80;;;6.72;;
33987;SDS011;37428;53.580;-1.666;2023-03-18T07:29:09;12.30;;;5.85;;
33987;SDS011;37428;53.580;-1.666;2023-03-18T07:32:11;12.05;;;5.55;;
33987;SDS011;37428;53.580;-1.666;2023-03-18T07:35:15;13.68;;;5.03;;
33987;SDS011;37428;53.580;-1.666;2023-03-18T07:38:17;12.38;;;5.18;;
33987;SDS011;37428;53.580;-1.666;2023-03-18T07:41:19;15.93;;;5.75;;
33987;SDS011;37428;53.580;-1.666;2023-03-18T07:44:21;12.30;;;4.82;;
33987;SDS011;37428;53.580;-1.666;2023-03-18T07:47:24;9.77;;;4.00;;
33987;SDS011;37428;53.580;-1.666;2023-03-18T07:50:27;10.82;;;3.92;;
33987;SDS011;37428;53.580;-1.666;2023-03-18T07:53:30;10.13;;;4.50;;
33987;SDS011;37428;53.580;-1.666;2023-03-18T07:56:32;14.25;;;5.78;;
33987;SDS011;37428;53.580;-1.666;2023-03-18T07:59:35;11.88;;;5.00;;
33987;SDS011;37428;53.580;-1.666;2023-03-18T08:02:38;15.02;;;5.60;;
33987;SDS011;37428;53.580;-1.666;2023-03-18T08:05:41;12.57;;;5.57;;
33987;SDS011;37428;53.580;-1.666;2023-03-18T08:08:43;8.52;;;4.38;;
33987;SDS011;37428;53.580;-1.666;2023-03-18T08:11:45;12.90;;;4.28;;
33987;SDS011;37428;53.580;-1.666;2023-03-18T08:14:47;13.07;;;4.18;;
33987;SDS011;37428;53.580;-1.666;2023-03-18T08:17:49;9.52;;;2.80;;
33987;SDS011;37428;53.580;-1.666;2023-03-18T08:20:54;8.93;;;3.97;;
33987;SDS011;37428;53.580;-1.666;2023-03-18T08:23:56;10.05;;;3.78;;
33987;SDS011;37428;53.580;-1.666;2023-03-18T08:26:58;17.30;;;4.18;;
33987;SDS011;37428;53.580;-1.666;2023-03-18T08:30:00;11.52;;;4.00;;
33987;SDS011;37428;53.580;-1.666;2023-03-18T08:33:02;10.15;;;3.75;;
33987;SDS011;37428;53.580;-1.666;2023-03-18T08:36:07;7.97;;;3.63;;
33987;SDS011;37428;53.580;-1.666;2023-03-18T08:39:09;11.25;;;3.90;;
33987;SDS011;37428;53.580;-1.666;2023-03-18T08:42:12;7.10;;;3.10;;
33987;SDS011;37428;53.580;-1.666;2023-03-18T08:45:15;7.60;;;2.95;;
33987;SDS011;37428;53.580;-1.666;2023-03-18T08:48:17;6.93;;;2.50;;
33987;SDS011;37428;53.580;-1.666;2023-03-18T08:51:21;6.88;;;3.00;;
33987;SDS011;37428;53.580;-1.666;2023-03-18T08:54:23;10.38;;;2.83;;
33987;SDS011;37428;53.580;-1.666;2023-03-18T08:57:26;7.57;;;3.42;;
33987;SDS011;37428;53.580;-1.666;2023-03-18T09:00:28;5.57;;;2.33;;
33987;SDS011;37428;53.580;-1.666;2023-03-18T09:03:31;5.43;;;2.35;;
33987;SDS011;37428;53.580;-1.666;2023-03-18T09:06:36;8.60;;;2.85;;
33987;SDS011;37428;53.580;-1.666;2023-03-18T09:09:39;8.13;;;2.47;;
33987;SDS011;37428;53.580;-1.666;2023-03-18T09:12:42;8.35;;;2.40;;
33987;SDS011;37428;53.580;-1.666;2023-03-18T09:15:45;6.63;;;2.30;;
33987;SDS011;37428;53.580;-1.666;2023-03-18T09:18:47;5.88;;;2.53;;
33987;SDS011;37428;53.580;-1.666;2023-03-18T09:21:51;9.88;;;2.35;;
33987;SDS011;37428;53.580;-1.666;2023-03-18T09:24:53;8.45;;;2.63;;
33987;SDS011;37428;53.580;-1.666;2023-03-18T09:27:55;13.13;;;2.67;;
33987;SDS011;37428;53.580;-1.666;2023-03-18T09:30:57;4.68;;;2.22;;
33987;SDS011;37428;53.580;-1.666;2023-03-18T09:33:59;10.65;;;3.17;;
33987;SDS011;37428;53.580;-1.666;2023-03-18T09:37:03;6.75;;;2.45;;
33987;SDS011;37428;53.580;-1.666;2023-03-18T09:40:06;5.80;;;2.47;;
33987;SDS011;37428;53.580;-1.666;2023-03-18T09:43:13;8.15;;;2.42;;
33987;SDS011;37428;53.580;-1.666;2023-03-18T09:46:31;12.32;;;3.22;;
33987;SDS011;37428;53.580;-1.666;2023-03-18T09:49:48;10.32;;;2.80;;
33987;SDS011;37428;53.580;-1.666;2023-03-18T09:53:08;7.57;;;2.33;;
33987;SDS011;37428;53.580;-1.666;2023-03-18T09:56:17;9.02;;;2.70;;
33987;SDS011;37428;53.580;-1.666;2023-03-18T09:59:25;6.88;;;2.50;;
33987;SDS011;37428;53.580;-1.666;2023-03-18T10:02:35;9.45;;;2.40;;
33987;SDS011;37428;53.580;-1.666;2023-03-18T10:05:43;9.32;;;2.83;;
33987;SDS011;37428;53.580;-1.666;2023-03-18T10:08:54;11.80;;;3.53;;
33987;SDS011;37428;53.580;-1.666;2023-03-18T10:12:04;6.15;;;2.80;;
33987;SDS011;37428;53.580;-1.666;2023-03-18T10:15:14;8.17;;;2.03;;
33987;SDS011;37428;53.580;-1.666;2023-03-18T10:18:19;5.70;;;1.90;;
33987;SDS011;37428;53.580;-1.666;2023-03-18T10:21:30;16.40;;;7.63;;
33987;SDS011;37428;53.580;-1.666;2023-03-18T10:24:46;5.05;;;1.95;;
33987;SDS011;37428;53.580;-1.666;2023-03-18T10:27:59;3.60;;;1.60;;
33987;SDS011;37428;53.580;-1.666;2023-03-18T10:31:28;5.97;;;2.75;;
33987;SDS011;37428;53.580;-1.666;2023-03-18T10:34:39;7.20;;;2.30;;
33987;SDS011;37428;53.580;-1.666;2023-03-18T10:37:48;4.47;;;2.40;;
33987;SDS011;37428;53.580;-1.666;2023-03-18T10:40:59;6.05;;;2.13;;
33987;SDS011;37428;53.580;-1.666;2023-03-18T10:44:03;8.48;;;2.20;;
33987;SDS011;37428;53.580;-1.666;2023-03-18T10:47:12;9.57;;;3.05;;
33987;SDS011;37428;53.580;-1.666;2023-03-18T10:50:20;9.52;;;2.17;;
33987;SDS011;37428;53.580;-1.666;2023-03-18T10:53:28;8.18;;;2.47;;
33987;SDS011;37428;53.580;-1.666;2023-03-18T10:56:36;12.00;;;2.45;;
33987;SDS011;37428;53.580;-1.666;2023-03-18T10:59:38;5.00;;;2.28;;
33987;SDS011;37428;53.580;-1.666;2023-03-18T11:02:43;5.80;;;2.55;;
33987;SDS011;37428;53.580;-1.666;2023-03-18T11:05:46;5.55;;;2.80;;
33987;SDS011;37428;53.580;-1.666;2023-03-18T11:08:58;8.30;;;2.22;;
33987;SDS011;37428;53.580;-1.666;2023-03-18T11:12:05;8.30;;;2.85;;
33987;SDS011;37428;53.580;-1.666;2023-03-18T11:15:18;4.03;;;2.20;;
33987;SDS011;37428;53.580;-1.666;2023-03-18T11:18:21;7.10;;;2.60;;
33987;SDS011;37428;53.580;-1.666;2023-03-18T11:21:25;8.57;;;3.42;;
33987;SDS011;37428;53.580;-1.666;2023-03-18T11:24:29;6.28;;;2.60;;
33987;SDS011;37428;53.580;-1.666;2023-03-18T11:27:43;8.23;;;3.03;;
33987;SDS011;37428;53.580;-1.666;2023-03-18T11:30:48;7.15;;;3.15;;
33987;SDS011;37428;53.580;-1.666;2023-03-18T11:33:55;7.47;;;2.63;;
33987;SDS011;37428;53.580;-1.666;2023-03-18T11:36:59;8.07;;;2.58;;
33987;SDS011;37428;53.580;-1.666;2023-03-18T11:40:17;11.45;;;3.60;;
33987;SDS011;37428;53.580;-1.666;2023-03-18T11:43:26;20.13;;;10.98;;
33987;SDS011;37428;53.580;-1.666;2023-03-18T11:46:29;10.32;;;5.72;;
33987;SDS011;37428;53.580;-1.666;2023-03-18T11:49:35;21.23;;;11.23;;
33987;SDS011;37428;53.580;-1.666;2023-03-18T11:52:38;10.57;;;5.45;;
33987;SDS011;37428;53.580;-1.666;2023-03-18T11:55:46;31.35;;;18.52;;
33987;SDS011;37428;53.580;-1.666;2023-03-18T11:59:12;11.57;;;5.45;;
33987;SDS011;37428;53.580;-1.666;2023-03-18T12:02:46;8.77;;;2.63;;
33987;SDS011;37428;53.580;-1.666;2023-03-18T12:06:04;9.57;;;2.70;;
33987;SDS011;37428;53.580;-1.666;2023-03-18T12:09:14;7.97;;;3.05;;
33987;SDS011;37428;53.580;-1.666;2023-03-18T12:12:27;6.78;;;2.97;;
33987;SDS011;37428;53.580;-1.666;2023-03-18T12:15:49;6.72;;;2.65;;
33987;SDS011;37428;53.580;-1.666;2023-03-18T12:19:01;6.43;;;2.30;;
33987;SDS011;37428;53.580;-1.666;2023-03-18T12:25:56;8.20;;;2.83;;
33987;SDS011;37428;53.580;-1.666;2023-03-18T12:29:07;7.15;;;2.65;;
33987;SDS011;37428;53.580;-1.666;2023-03-18T12:32:29;5.95;;;2.78;;
33987;SDS011;37428;53.580;-1.666;2023-03-18T12:35:38;11.02;;;3.78;;
33987;SDS011;37428;53.580;-1.666;2023-03-18T12:38:55;6.53;;;3.83;;
33987;SDS011;37428;53.580;-1.666;2023-03-18T12:42:09;8.68;;;3.60;;
33987;SDS011;37428;53.580;-1.666;2023-03-18T12:45:16;4.55;;;1.98;;
33987;SDS011;37428;53.580;-1.666;2023-03-18T12:48:23;5.10;;;1.35;;
33987;SDS011;37428;53.580;-1.666;2023-03-18T12:51:39;4.13;;;1.42;;
33987;SDS011;37428;53.580;-1.666;2023-03-18T12:54:46;3.75;;;1.35;;
33987;SDS011;37428;53.580;-1.666;2023-03-18T12:57:52;5.22;;;1.13;;
33987;SDS011;37428;53.580;-1.666;2023-03-18T13:01:01;3.85;;;1.20;;
33987;SDS011;37428;53.580;-1.666;2023-03-18T13:04:11;4.63;;;1.40;;
33987;SDS011;37428;53.580;-1.666;2023-03-18T13:07:18;3.53;;;1.50;;
33987;SDS011;37428;53.580;-1.666;2023-03-18T13:10:25;3.80;;;1.73;;
33987;SDS011;37428;53.580;-1.666;2023-03-18T13:13:33;1.88;;;1.15;;
33987;SDS011;37428;53.580;-1.666;2023-03-18T13:16:40;2.22;;;1.23;;
33987;SDS011;37428;53.580;-1.666;2023-03-18T13:19:44;3.22;;;0.85;;
33987;SDS011;37428;53.580;-1.666;2023-03-18T13:22:50;2.92;;;1.00;;
33987;SDS011;37428;53.580;-1.666;2023-03-18T13:26:05;2.70;;;1.30;;
33987;SDS011;37428;53.580;-1.666;2023-03-18T13:29:17;4.40;;;1.73;;
33987;SDS011;37428;53.580;-1.666;2023-03-18T13:32:28;2.42;;;1.10;;
33987;SDS011;37428;53.580;-1.666;2023-03-18T13:36:04;5.63;;;1.52;;
33987;SDS011;37428;53.580;-1.666;2023-03-18T13:39:18;4.85;;;2.13;;
33987;SDS011;37428;53.580;-1.666;2023-03-18T13:42:28;5.05;;;1.85;;
33987;SDS011;37428;53.580;-1.666;2023-03-18T13:45:35;5.18;;;1.95;;
33987;SDS011;37428;53.580;-1.666;2023-03-18T13:48:39;2.47;;;1.08;;
33987;SDS011;37428;53.580;-1.666;2023-03-18T13:51:50;1.58;;;0.90;;
33987;SDS011;37428;53.580;-1.666;2023-03-18T13:54:59;3.40;;;1.45;;
33987;SDS011;37428;53.580;-1.666;2023-03-18T13:58:17;4.53;;;1.90;;
33987;SDS011;37428;53.580;-1.666;2023-03-18T14:01:25;6.65;;;2.20;;
33987;SDS011;37428;53.580;-1.666;2023-03-18T14:04:33;6.65;;;2.60;;
33987;SDS011;37428;53.580;-1.666;2023-03-18T14:07:47;4.18;;;1.95;;
33987;SDS011;37428;53.580;-1.666;2023-03-18T14:10:55;5.63;;;1.98;;
33987;SDS011;37428;53.580;-1.666;2023-03-18T14:14:55;6.00;;;2.53;;
33987;SDS011;37428;53.580;-1.666;2023-03-18T14:18:01;5.10;;;1.85;;
33987;SDS011;37428;53.580;-1.666;2023-03-18T14:21:05;7.35;;;1.65;;
33987;SDS011;37428;53.580;-1.666;2023-03-18T14:24:24;2.88;;;1.60;;
33987;SDS011;37428;53.580;-1.666;2023-03-18T14:27:28;4.82;;;2.05;;
33987;SDS011;37428;53.580;-1.666;2023-03-18T14:34:00;5.65;;;1.88;;
33987;SDS011;37428;53.580;-1.666;2023-03-18T14:37:28;4.72;;;2.03;;
33987;SDS011;37428;53.580;-1.666;2023-03-18T14:40:34;4.47;;;1.90;;
33987;SDS011;37428;53.580;-1.666;2023-03-18T14:43:39;4.25;;;1.80;;
33987;SDS011;37428;53.580;-1.666;2023-03-18T14:46:48;5.15;;;1.88;;
33987;SDS011;37428;53.580;-1.666;2023-03-18T14:49:53;4.53;;;1.95;;
33987;SDS011;37428;53.580;-1.666;2023-03-18T14:53:01;5.15;;;2.15;;
33987;SDS011;37428;53.580;-1.666;2023-03-18T14:56:15;2.97;;;1.90;;
33987;SDS011;37428;53.580;-1.666;2023-03-18T14:59:18;6.32;;;2.58;;
33987;SDS011;37428;53.580;-1.666;2023-03-18T15:02:27;7.13;;;2.00;;
33987;SDS011;37428;53.580;-1.666;2023-03-18T15:05:33;3.28;;;1.85;;
33987;SDS011;37428;53.580;-1.666;2023-03-18T15:08:38;4.35;;;1.35;;
33987;SDS011;37428;53.580;-1.666;2023-03-18T15:11:49;1.80;;;1.20;;
33987;SDS011;37428;53.580;-1.666;2023-03-18T15:14:51;0.98;;;0.73;;
33987;SDS011;37428;53.580;-1.666;2023-03-18T15:17:55;2.95;;;0.80;;
33987;SDS011;37428;53.580;-1.666;2023-03-18T15:21:01;1.08;;;0.80;;
33987;SDS011;37428;53.580;-1.666;2023-03-18T15:24:06;1.48;;;1.00;;
33987;SDS011;37428;53.580;-1.666;2023-03-18T15:27:11;1.17;;;1.02;;
33987;SDS011;37428;53.580;-1.666;2023-03-18T15:30:22;2.65;;;1.40;;
33987;SDS011;37428;53.580;-1.666;2023-03-18T15:33:29;1.60;;;1.05;;
33987;SDS011;37428;53.580;-1.666;2023-03-18T15:36:39;3.25;;;1.20;;
33987;SDS011;37428;53.580;-1.666;2023-03-18T15:39:43;1.77;;;1.38;;
33987;SDS011;37428;53.580;-1.666;2023-03-18T15:42:45;2.45;;;1.50;;
33987;SDS011;37428;53.580;-1.666;2023-03-18T15:45:51;1.92;;;1.67;;
33987;SDS011;37428;53.580;-1.666;2023-03-18T15:48:59;2.92;;;1.55;;
33987;SDS011;37428;53.580;-1.666;2023-03-18T15:52:06;2.53;;;1.17;;
33987;SDS011;37428;53.580;-1.666;2023-03-18T15:55:20;1.65;;;1.30;;
33987;SDS011;37428;53.580;-1.666;2023-03-18T15:58:33;1.65;;;1.40;;
33987;SDS011;37428;53.580;-1.666;2023-03-18T16:01:36;3.15;;;1.40;;
33987;SDS011;37428;53.580;-1.666;2023-03-18T16:07:43;2.60;;;1.70;;
33987;SDS011;37428;53.580;-1.666;2023-03-18T16:10:46;1.42;;;1.30;;
33987;SDS011;37428;53.580;-1.666;2023-03-18T16:13:50;2.60;;;2.25;;
33987;SDS011;37428;53.580;-1.666;2023-03-18T16:16:52;2.10;;;1.60;;
33987;SDS011;37428;53.580;-1.666;2023-03-18T16:19:56;2.85;;;1.52;;
33987;SDS011;37428;53.580;-1.666;2023-03-18T16:22:58;2.58;;;1.38;;
33987;SDS011;37428;53.580;-1.666;2023-03-18T16:26:00;1.35;;;1.08;;
33987;SDS011;37428;53.580;-1.666;2023-03-18T16:29:09;3.10;;;1.40;;
33987;SDS011;37428;53.580;-1.666;2023-03-18T16:32:16;2.45;;;1.30;;
33987;SDS011;37428;53.580;-1.666;2023-03-18T16:35:20;1.70;;;1.30;;
33987;SDS011;37428;53.580;-1.666;2023-03-18T16:38:23;2.85;;;1.58;;
33987;SDS011;37428;53.580;-1.666;2023-03-18T16:41:27;3.67;;;1.42;;
33987;SDS011;37428;53.580;-1.666;2023-03-18T16:44:29;4.43;;;1.40;;
33987;SDS011;37428;53.580;-1.666;2023-03-18T16:47:33;3.15;;;1.45;;
33987;SDS011;37428;53.580;-1.666;2023-03-18T16:50:37;3.95;;;1.42;;
33987;SDS011;37428;53.580;-1.666;2023-03-18T16:53:41;3.58;;;1.40;;
33987;SDS011;37428;53.580;-1.666;2023-03-18T16:56:43;4.35;;;1.40;;
33987;SDS011;37428;53.580;-1.666;2023-03-18T16:59:47;3.63;;;1.38;;
33987;SDS011;37428;53.580;-1.666;2023-03-18T17:02:51;3.25;;;1.60;;
33987;SDS011;37428;53.580;-1.666;2023-03-18T17:05:56;6.45;;;1.63;;
33987;SDS011;37428;53.580;-1.666;2023-03-18T17:08:58;5.03;;;1.40;;
33987;SDS011;37428;53.580;-1.666;2023-03-18T17:12:02;8.45;;;1.92;;
33987;SDS011;37428;53.580;-1.666;2023-03-18T17:15:09;5.30;;;1.20;;
33987;SDS011;37428;53.580;-1.666;2023-03-18T17:18:14;7.07;;;1.83;;
33987;SDS011;37428;53.580;-1.666;2023-03-18T17:21:19;6.80;;;1.48;;
33987;SDS011;37428;53.580;-1.666;2023-03-18T17:24:22;5.68;;;1.60;;
33987;SDS011;37428;53.580;-1.666;2023-03-18T17:27:25;5.95;;;1.65;;
33987;SDS011;37428;53.580;-1.666;2023-03-18T17:30:31;6.57;;;1.70;;
33987;SDS011;37428;53.580;-1.666;2023-03-18T17:33:35;11.10;;;1.92;;
33987;SDS011;37428;53.580;-1.666;2023-03-18T17:36:39;6.68;;;1.95;;
33987;SDS011;37428;53.580;-1.666;2023-03-18T17:39:42;7.00;;;1.90;;
33987;SDS011;37428;53.580;-1.666;2023-03-18T17:42:44;4.03;;;1.67;;
33987;SDS011;37428;53.580;-1.666;2023-03-18T17:45:48;7.25;;;1.90;;
33987;SDS011;37428;53.580;-1.666;2023-03-18T17:48:50;5.68;;;1.77;;
33987;SDS011;37428;53.580;-1.666;2023-03-18T17:54:56;5.60;;;1.50;;
33987;SDS011;37428;53.580;-1.666;2023-03-18T17:57:59;6.05;;;1.98;;
33987;SDS011;37428;53.580;-1.666;2023-03-18T18:01:02;8.40;;;2.08;;
33987;SDS011;37428;53.580;-1.666;2023-03-18T18:04:05;6.47;;;2.05;;
33987;SDS011;37428;53.580;-1.666;2023-03-18T18:07:16;5.60;;;2.20;;
33987;SDS011;37428;53.580;-1.666;2023-03-18T18:10:20;6.53;;;1.92;;
33987;SDS011;37428;53.580;-1.666;2023-03-18T18:13:23;4.50;;;2.15;;
33987;SDS011;37428;53.580;-1.666;2023-03-18T18:16:25;3.75;;;1.48;;
33987;SDS011;37428;53.580;-1.666;2023-03-18T18:19:27;4.32;;;1.70;;
33987;SDS011;37428;53.580;-1.666;2023-03-18T18:22:31;7.50;;;2.33;;
33987;SDS011;37428;53.580;-1.666;2023-03-18T18:25:33;3.50;;;1.50;;
33987;SDS011;37428;53.580;-1.666;2023-03-18T18:28:36;6.70;;;1.83;;
33987;SDS011;37428;53.580;-1.666;2023-03-18T18:31:39;4.28;;;1.50;;
33987;SDS011;37428;53.580;-1.666;2023-03-18T18:34:41;3.97;;;1.10;;
33987;SDS011;37428;53.580;-1.666;2023-03-18T18:37:45;3.88;;;1.33;;